Time;durP1;ratioP1;P1;durP2;ratioP2;P2;SDS_P1;SDS_P2;PMS_P1;PMS_P2;Temp;Humidity;BMP_temperature;BMP_pressure;BME280_temperature;BME280_humidity;BME280_pressure;Samples;Min_cycle;Max_cycle;Signal;HPM_P1;HPM_P2
2022/11/28 00:01:50;;;;;;;46.45;44.75;;;9.00;95.00;;;;;;5042642;28;20533;-76
2022/11/28 00:04:16;;;;;;;44.20;42.50;;;9.00;95.00;;;;;;5010912;28;20289;-76
2022/11/28 00:06:44;;;;;;;46.38;44.65;;;9.00;95.00;;;;;;5042642;28;20034;-75
2022/11/28 00:09:11;;;;;;;43.70;42.10;;;8.90;94.90;;;;;;5010698;28;20029;-76
2022/11/28 00:11:41;;;;;;;47.85;46.05;;;9.00;95.00;;;;;;5010756;28;20030;-75
2022/11/28 00:14:07;;;;;;;44.50;42.80;;;9.00;95.00;;;;;;5010962;28;20394;-76
2022/11/28 00:16:33;;;;;;;45.55;43.85;;;8.90;95.00;;;;;;5009120;28;20033;-76
2022/11/28 00:19:00;;;;;;;49.28;47.38;;;8.90;95.00;;;;;;5042411;28;20029;-76
2022/11/28 00:21:26;;;;;;;45.42;43.72;;;8.90;95.00;;;;;;5010403;28;20168;-76
2022/11/28 00:23:52;;;;;;;44.88;43.17;;;8.90;95.00;;;;;;5010444;28;20088;-75
2022/11/28 00:26:25;;;;;;;46.13;44.42;;;8.80;94.90;;;;;;5010731;28;20026;-75
2022/11/28 00:28:51;;;;;;;48.25;46.45;;;8.80;94.90;;;;;;5010555;28;20057;-75
2022/11/28 00:31:21;;;;;;;47.00;45.20;;;8.80;94.90;;;;;;5009334;28;20032;-75
2022/11/28 00:33:47;;;;;;;46.45;44.72;;;8.80;94.90;;;;;;5010633;28;20037;-75
2022/11/28 00:36:14;;;;;;;47.45;45.65;;;8.80;94.90;;;;;;5009280;28;20030;-75
2022/11/28 00:38:40;;;;;;;44.08;42.38;;;8.70;94.90;;;;;;5009136;28;20061;-75
2022/11/28 00:41:07;;;;;;;;;;;8.70;94.90;;;;;;5009799;28;20022;-76
2022/11/28 00:43:33;;;;;;;42.80;41.20;;;8.70;94.90;;;;;;5010445;28;19951;-76
2022/11/28 00:45:59;;;;;;;44.42;42.75;;;8.70;94.90;;;;;;5010124;28;20030;-75
2022/11/28 00:48:25;;;;;;;42.72;41.13;;;8.70;94.90;;;;;;5041933;28;20475;-76
2022/11/28 00:50:51;;;;;;;42.75;41.15;;;8.70;94.90;;;;;;5041866;28;20043;-78
2022/11/28 00:53:17;;;;;;;;;;;8.70;94.90;;;;;;5010921;28;20091;-78
2022/11/28 00:55:43;;;;;;;42.10;40.50;;;8.60;94.90;;;;;;5010001;28;20004;-76
2022/11/28 00:58:09;;;;;;;42.53;40.92;;;8.60;94.80;;;;;;5025061;28;20101;-76
2022/11/28 01:00:35;;;;;;;43.70;42.10;;;8.60;94.80;;;;;;5041558;28;20046;-77
2022/11/28 01:03:00;;;;;;;;;;;8.60;94.80;;;;;;5009047;28;20032;-76
2022/11/28 01:05:26;;;;;;;44.50;42.80;;;8.50;94.80;;;;;;5041763;28;20393;-76
2022/11/28 01:07:52;;;;;;;42.25;40.65;;;8.50;94.70;;;;;;5009705;28;20030;-76
2022/11/28 01:10:18;;;;;;;42.40;40.80;;;8.40;94.70;;;;;;5009871;28;20390;-76
2022/11/28 01:12:44;;;;;;;42.92;41.33;;;8.40;94.80;;;;;;5024893;28;20034;-76
2022/11/28 01:15:12;;;;;;;43.70;42.10;;;8.40;94.80;;;;;;5041481;28;20398;-76
2022/11/28 01:17:38;;;;;;;44.40;42.78;;;8.40;94.80;;;;;;5008062;28;20120;-76
2022/11/28 01:20:06;;;;;;;;;;;8.30;94.70;;;;;;5008770;28;20390;-76
2022/11/28 01:22:32;;;;;;;46.38;44.67;;;8.30;94.80;;;;;;5008231;28;20010;-76
2022/11/28 01:24:58;;;;;;;47.85;46.05;;;8.20;94.70;;;;;;5009591;28;20017;-76
2022/11/28 01:27:23;;;;;;;51.00;49.10;;;8.20;94.70;;;;;;5009455;28;20463;-76
2022/11/28 01:29:49;;;;;;;53.85;51.85;;;8.20;94.80;;;;;;5024622;28;20133;-76
2022/11/28 01:32:15;;;;;;;52.22;50.25;;;8.20;94.80;;;;;;5041203;28;20042;-76
2022/11/28 01:34:41;;;;;;;54.63;52.63;;;8.20;94.80;;;;;;5008140;28;20029;-76
2022/11/28 01:37:07;;;;;;;56.10;54.00;;;8.20;94.80;;;;;;5009515;28;20038;-76
2022/11/28 01:39:32;;;;;;;55.83;53.72;;;8.20;94.80;;;;;;5009252;28;20033;-76
2022/11/28 01:41:58;;;;;;;57.47;55.33;;;8.20;94.80;;;;;;5040980;28;20119;-76
2022/11/28 01:44:24;;;;;;;60.03;57.83;;;8.20;94.80;;;;;;5007900;28;20030;-76
2022/11/28 01:46:50;;;;;;;60.03;57.83;;;8.20;94.80;;;;;;5009081;28;20491;-75
2022/11/28 01:49:25;;;;;;;60.80;58.50;;;8.20;94.80;;;;;;5007585;28;20390;-76
2022/11/28 01:51:57;;;;;;;60.22;57.92;;;8.20;94.80;;;;;;5009067;28;20030;-78
2022/11/28 01:54:25;;;;;;;61.15;58.85;;;8.20;94.90;;;;;;5008982;28;20568;-76
2022/11/28 01:57:03;;;;;;;59.03;56.83;;;8.20;94.90;;;;;;5008790;28;20034;-75
2022/11/28 01:59:45;;;;;;;63.60;61.20;;;8.20;94.90;;;;;;5008880;28;20045;-76
2022/11/28 02:02:17;;;;;;;61.83;59.53;;;8.30;94.90;;;;;;5008912;28;20083;-76
2022/11/28 02:04:45;;;;;;;61.05;58.75;;;8.20;94.80;;;;;;5007480;28;20050;-76
2022/11/28 02:07:11;;;;;;;61.13;58.83;;;8.20;94.80;;;;;;5008601;28;20248;-76
2022/11/28 02:09:37;;;;;;;62.10;59.80;;;8.20;94.90;;;;;;5008654;28;20490;-76
2022/11/28 02:12:09;;;;;;;66.10;63.60;;;8.30;94.90;;;;;;5040462;28;20034;-76
2022/11/28 02:14:53;;;;;;;63.22;60.83;;;8.20;94.80;;;;;;5008264;28;20382;-76
2022/11/28 02:17:37;;;;;;;60.65;58.35;;;8.20;94.80;;;;;;5007021;28;20041;-76
2022/11/28 02:20:15;;;;;;;62.90;60.55;;;8.20;94.80;;;;;;5007200;28;20050;-76
2022/11/28 02:23:08;;;;;;;65.82;63.33;;;8.20;94.80;;;;;;5008443;28;20538;-76
2022/11/28 02:25:43;;;;;;;63.40;61.00;;;8.20;94.90;;;;;;5008451;28;20429;-76
2022/11/28 02:28:47;;;;;;;61.95;59.65;;;8.20;94.90;;;;;;5008369;28;20022;-76
2022/11/28 02:31:35;;;;;;;61.53;59.22;;;8.20;94.90;;;;;;5008301;28;20088;-76
2022/11/28 02:34:08;;;;;;;;;;;8.20;94.90;;;;;;5008774;28;20026;-77
2022/11/28 02:36:50;;;;;;;63.80;61.40;;;8.20;94.90;;;;;;5008301;28;19905;-76
2022/11/28 02:39:29;;;;;;;62.05;59.75;;;8.10;94.80;;;;;;5008013;28;20032;-76
2022/11/28 02:42:21;;;;;;;63.67;61.28;;;8.10;94.80;;;;;;5006906;28;20066;-76
2022/11/28 02:44:56;;;;;;;63.10;60.70;;;8.10;94.80;;;;;;5008336;28;20022;-76
2022/11/28 02:47:47;;;;;;;59.55;57.35;;;8.10;94.80;;;;;;5008013;28;20470;-76
2022/11/28 02:50:20;;;;;;;64.07;61.67;;;8.10;94.80;;;;;;5006811;28;20037;-76
2022/11/28 02:52:52;;;;;;;63.00;60.60;;;8.10;94.80;;;;;;5007976;28;20053;-76
2022/11/28 02:55:18;;;;;;;64.88;62.47;;;8.00;94.70;;;;;;5008221;28;20029;-78
2022/11/28 02:57:50;;;;;;;64.22;61.83;;;8.00;94.70;;;;;;5007939;28;20481;-78
2022/11/28 03:00:35;;;;;;;63.95;61.55;;;8.00;94.70;;;;;;5007861;28;20030;-78
2022/11/28 03:03:06;;;;;;;65.65;63.15;;;7.90;94.70;;;;;;5008041;28;20076;-78
2022/11/28 03:05:54;;;;;;;68.65;66.05;;;7.90;94.70;;;;;;5006551;28;20026;-78
2022/11/28 03:08:31;;;;;;;67.32;64.82;;;7.90;94.70;;;;;;5007823;28;20022;-78
2022/11/28 03:11:11;;;;;;;65.15;62.70;;;7.80;94.80;;;;;;5008406;28;20100;-78
2022/11/28 03:14:08;;;;;;;66.78;64.28;;;7.90;94.80;;;;;;5006471;28;20081;-77
2022/11/28 03:16:47;;;;;;;64.40;62.00;;;7.90;94.80;;;;;;5005955;28;20042;-78
2022/11/28 03:19:36;;;;;;;65.65;63.17;;;7.90;94.90;;;;;;5007563;28;20363;-78
2022/11/28 03:22:13;;;;;;;65.20;62.78;;;7.90;94.70;;;;;;5007762;28;20348;-77
2022/11/28 03:24:58;;;;;;;65.38;62.92;;;7.90;94.70;;;;;;5007754;28;20489;-78
2022/11/28 03:27:56;;;;;;;65.25;62.80;;;7.90;94.70;;;;;;5007197;28;20022;-78
2022/11/28 03:30:42;;;;;;;64.85;62.42;;;7.80;94.70;;;;;;5014897;28;20048;-77
2022/11/28 03:33:08;;;;;;;66.55;64.05;;;7.80;94.80;;;;;;5011572;28;20026;-78
2022/11/28 03:35:39;;;;;;;65.95;63.45;;;7.80;94.80;;;;;;5011931;28;20036;-78
2022/11/28 03:38:32;;;;;;;67.25;64.75;;;7.90;94.80;;;;;;5011594;28;20290;-77
2022/11/28 03:41:06;;;;;;;66.20;63.70;;;7.90;94.80;;;;;;5010235;28;20030;-78
2022/11/28 03:43:37;;;;;;;60.85;58.55;;;7.90;94.80;;;;;;5011526;28;20470;-77
2022/11/28 03:46:07;;;;;;;63.35;60.95;;;7.90;94.80;;;;;;5010090;28;20509;-78
2022/11/28 03:48:42;;;;;;;62.97;60.58;;;7.90;94.90;;;;;;5011098;28;20032;-77
2022/11/28 03:51:45;;;;;;;63.97;61.58;;;8.00;94.90;;;;;;5011412;28;20518;-77
2022/11/28 03:54:23;;;;;;;63.60;61.20;;;8.00;94.90;;;;;;5010665;28;20112;-78
2022/11/28 03:57:05;;;;;;;62.75;60.35;;;8.10;94.90;;;;;;5009858;28;20026;-78
2022/11/28 03:59:38;;;;;;;61.97;59.65;;;8.10;94.90;;;;;;5011069;28;20056;-77
2022/11/28 04:02:35;;;;;;;60.35;58.05;;;8.10;94.90;;;;;;5011260;28;20018;-77
2022/11/28 04:05:15;;;;;;;57.67;55.47;;;8.10;94.90;;;;;;5011523;28;20056;-78
2022/11/28 04:08:15;;;;;;;60.67;58.38;;;8.20;94.90;;;;;;5011088;28;20472;-77
2022/11/28 04:10:51;;;;;;;60.15;57.85;;;8.30;94.90;;;;;;5009426;28;20034;-78
2022/11/28 04:13:34;;;;;;;59.35;57.10;;;8.30;94.80;;;;;;5010901;28;20028;-78
2022/11/28 04:16:03;;;;;;;61.92;59.63;;;8.30;94.80;;;;;;5010876;28;20041;-78
2022/11/28 04:18:36;;;;;;;63.50;61.10;;;8.30;94.80;;;;;;5009320;28;20049;-78
2022/11/28 04:21:11;;;;;;;60.65;58.35;;;8.30;94.80;;;;;;5010854;28;20415;-78
2022/11/28 04:23:39;;;;;;;63.13;60.72;;;8.20;94.90;;;;;;5009488;28;20024;-78
2022/11/28 04:26:19;;;;;;;63.55;61.15;;;8.20;94.90;;;;;;5010763;28;20022;-78
2022/11/28 04:28:48;;;;;;;61.00;58.70;;;8.20;94.90;;;;;;5010677;28;20030;-78
2022/11/28 04:31:16;;;;;;;60.40;58.10;;;8.20;94.90;;;;;;5010598;28;20022;-78
2022/11/28 04:33:46;;;;;;;59.72;57.42;;;8.20;94.90;;;;;;5010578;28;20474;-78
2022/11/28 04:36:14;;;;;;;62.80;60.40;;;8.20;94.90;;;;;;5010425;28;20474;-78
2022/11/28 04:38:41;;;;;;;64.80;62.40;;;8.20;94.90;;;;;;5009924;28;20033;-78
2022/11/28 04:41:16;;;;;;;64.95;62.55;;;8.20;94.90;;;;;;5010464;28;20044;-78
2022/11/28 04:43:51;;;;;;;65.63;63.13;;;8.20;94.90;;;;;;5010421;28;20063;-78
2022/11/28 04:46:23;;;;;;;66.30;63.80;;;8.20;94.90;;;;;;5010443;28;20120;-78
2022/11/28 04:48:49;;;;;;;62.88;60.47;;;8.20;95.00;;;;;;5010141;28;20073;-78
2022/11/28 04:51:47;;;;;;;63.60;61.20;;;8.30;95.00;;;;;;5010068;28;20038;-77
2022/11/28 04:54:51;;;;;;;68.10;65.53;;;8.30;95.00;;;;;;5010021;28;20040;-77
2022/11/28 04:57:36;;;;;;;65.10;62.60;;;8.30;94.90;;;;;;5009760;28;20029;-77
2022/11/28 05:00:06;;;;;;;68.70;66.10;;;8.30;94.90;;;;;;5009670;28;20063;-77
2022/11/28 05:02:34;;;;;;;71.10;68.40;;;8.20;94.90;;;;;;5009989;28;20026;-77
2022/11/28 05:05:00;;;;;;;68.10;65.50;;;8.30;94.90;;;;;;5009657;28;20026;-77
2022/11/28 05:07:25;;;;;;;71.20;68.50;;;8.30;94.80;;;;;;5024826;28;20025;-77
2022/11/28 05:09:51;;;;;;;71.40;68.70;;;8.30;94.80;;;;;;5009755;28;20045;-77
2022/11/28 05:12:17;;;;;;;68.85;66.25;;;8.20;94.80;;;;;;5024862;28;20058;-77
2022/11/28 05:14:43;;;;;;;71.68;68.97;;;8.10;94.80;;;;;;5024718;28;20038;-77
2022/11/28 05:17:14;;;;;;;70.68;67.97;;;8.10;94.80;;;;;;5008208;28;20050;-77
2022/11/28 05:19:39;;;;;;;70.53;67.82;;;8.00;94.80;;;;;;5009923;28;20036;-77
2022/11/28 05:22:05;;;;;;;71.03;68.32;;;8.00;94.80;;;;;;5009528;28;20026;-77
2022/11/28 05:24:31;;;;;;;77.10;74.20;;;7.90;94.80;;;;;;5041175;28;20498;-77
2022/11/28 05:26:56;;;;;;;74.90;72.10;;;7.90;95.00;;;;;;5008095;28;20108;-77
2022/11/28 05:29:24;;;;;;;75.60;72.70;;;7.80;94.80;;;;;;5041420;28;20491;-77
2022/11/28 05:31:49;;;;;;;76.80;73.90;;;7.80;94.80;;;;;;5009331;28;20076;-77
2022/11/28 05:34:15;;;;;;;74.10;71.30;;;7.70;94.80;;;;;;5008268;28;20425;-77
2022/11/28 05:36:41;;;;;;;77.45;74.50;;;7.70;94.80;;;;;;5024953;28;20034;-77
2022/11/28 05:39:07;;;;;;;76.03;73.13;;;7.70;94.80;;;;;;5008223;28;20060;-77
2022/11/28 05:41:33;;;;;;;76.07;73.18;;;7.60;94.80;;;;;;5024630;28;20030;-77
2022/11/28 05:44:00;;;;;;;79.57;76.57;;;7.60;94.90;;;;;;5009549;28;20026;-78
2022/11/28 05:46:26;;;;;;;78.45;75.45;;;7.70;94.90;;;;;;5009328;28;20106;-77
2022/11/28 05:48:52;;;;;;;75.10;72.25;;;7.70;94.90;;;;;;5009182;28;20044;-77
2022/11/28 05:51:18;;;;;;;76.95;74.00;;;7.80;94.90;;;;;;5008076;28;20101;-77
2022/11/28 05:53:44;;;;;;;73.90;71.10;;;7.80;94.90;;;;;;5040749;28;20049;-77
2022/11/28 05:56:15;;;;;;;74.60;71.72;;;7.90;94.90;;;;;;5040583;28;20040;-77
2022/11/28 05:58:41;;;;;;;75.20;72.32;;;7.90;94.90;;;;;;5009406;28;20441;-77
2022/11/28 06:01:19;;;;;;;75.88;72.97;;;7.90;94.90;;;;;;5024018;28;20030;-76
2022/11/28 06:03:46;;;;;;;73.78;70.93;;;7.90;94.80;;;;;;5007426;28;20026;-77
2022/11/28 06:06:15;;;;;;;76.82;73.93;;;7.90;94.70;;;;;;5008792;28;20026;-77
2022/11/28 06:08:41;;;;;;;75.43;72.53;;;7.90;94.80;;;;;;5007198;28;20060;-78
2022/11/28 06:11:08;;;;;;;74.35;71.53;;;7.80;94.90;;;;;;5007334;28;20510;-77
2022/11/28 06:13:34;;;;;;;73.88;71.07;;;7.90;95.00;;;;;;5008619;28;20104;-77
2022/11/28 06:16:00;;;;;;;76.50;73.60;;;7.90;94.90;;;;;;5008656;28;20116;-77
2022/11/28 06:18:26;;;;;;;77.30;74.40;;;8.00;94.90;;;;;;5023122;28;20592;-77
2022/11/28 06:20:51;;;;;;;76.95;74.00;;;8.00;94.90;;;;;;5008202;28;20041;-77
2022/11/28 06:23:17;;;;;;;80.85;77.80;;;7.90;94.80;;;;;;5040172;28;20355;-77
2022/11/28 06:25:43;;;;;;;76.10;73.20;;;7.90;94.80;;;;;;5040113;28;20034;-77
2022/11/28 06:28:08;;;;;;;77.60;74.68;;;7.90;94.80;;;;;;5008434;28;20475;-77
2022/11/28 06:30:34;;;;;;;77.50;74.53;;;7.90;94.90;;;;;;5008151;28;20040;-77
2022/11/28 06:33:00;;;;;;;78.10;75.10;;;7.90;94.90;;;;;;5008206;28;20394;-77
2022/11/28 06:35:26;;;;;;;75.20;72.30;;;8.00;94.90;;;;;;5023306;28;20038;-77
2022/11/28 06:37:51;;;;;;;79.95;76.85;;;8.00;94.90;;;;;;5006988;28;20092;-77
2022/11/28 06:40:17;;;;;;;76.85;73.93;;;8.00;94.90;;;;;;5023184;28;20092;-77
2022/11/28 06:42:43;;;;;;;78.28;75.28;;;8.10;94.90;;;;;;5008683;28;20112;-77
2022/11/28 06:45:09;;;;;;;76.88;73.93;;;8.10;95.10;;;;;;5006995;28;20121;-77
2022/11/28 06:47:34;;;;;;;73.93;71.07;;;8.10;94.90;;;;;;5007920;28;20025;-77
2022/11/28 06:50:00;;;;;;;74.07;71.18;;;8.10;94.90;;;;;;5006722;28;20038;-77
2022/11/28 06:52:26;;;;;;;76.80;73.80;;;8.10;94.90;;;;;;5039636;28;20030;-77
2022/11/28 06:54:52;;;;;;;74.07;71.18;;;8.20;94.90;;;;;;5039582;28;20026;-77
2022/11/28 06:57:17;;;;;;;76.30;73.30;;;8.20;94.90;;;;;;5006347;28;20105;-77
2022/11/28 06:59:43;;;;;;;76.30;73.30;;;8.20;94.90;;;;;;5007603;28;20057;-77
2022/11/28 07:02:10;;;;;;;76.50;73.50;;;8.30;94.90;;;;;;5006410;28;20076;-77
2022/11/28 07:04:36;;;;;;;75.30;72.40;;;8.30;94.90;;;;;;5007871;28;20534;-77
2022/11/28 07:07:02;;;;;;;75.43;72.45;;;8.40;94.90;;;;;;5022876;28;20029;-77
2022/11/28 07:09:28;;;;;;;72.70;69.90;;;8.40;94.90;;;;;;5007762;28;20081;-77
2022/11/28 07:11:54;;;;;;;73.88;70.97;;;8.40;94.90;;;;;;5007659;28;20498;-76
2022/11/28 07:14:19;;;;;;;72.90;70.00;;;8.50;94.90;;;;;;5007579;28;20068;-75
2022/11/28 07:16:46;;;;;;;71.90;69.10;;;8.50;94.90;;;;;;5039360;28;20049;-75
2022/11/28 07:19:12;;;;;;;;;;;8.50;94.90;;;;;;5008134;28;20034;-74
2022/11/28 07:21:38;;;;;;;70.38;67.63;;;8.50;94.90;;;;;;5039318;28;19917;-76
2022/11/28 07:24:04;;;;;;;;;;;8.50;94.80;;;;;;5039698;28;20076;-75
2022/11/28 07:26:30;;;;;;;71.15;68.35;;;8.50;94.80;;;;;;5007731;28;20007;-75
2022/11/28 07:28:58;;;;;;;68.55;65.85;;;8.60;94.80;;;;;;5007678;28;20401;-75
2022/11/28 07:31:25;;;;;;;68.55;65.85;;;8.60;94.80;;;;;;5006138;28;20249;-75
2022/11/28 07:33:51;;;;;;;70.20;67.40;;;8.60;94.80;;;;;;5010433;28;20042;-76
2022/11/28 07:36:22;;;;;;;71.00;68.20;;;8.60;94.80;;;;;;5007200;28;20037;-75
2022/11/28 07:38:49;;;;;;;71.90;69.10;;;8.50;95.00;;;;;;5007159;28;20398;-76
2022/11/28 07:41:15;;;;;;;70.18;67.38;;;8.60;94.90;;;;;;5007334;28;20033;-75
2022/11/28 07:43:42;;;;;;;;;;;8.60;94.80;;;;;;5007759;28;20363;-75
2022/11/28 07:46:12;;;;;;;77.32;74.32;;;8.60;94.80;;;;;;5006930;28;19917;-76
2022/11/28 07:48:38;;;;;;;76.30;73.30;;;8.60;94.80;;;;;;5007010;28;20018;-75
2022/11/28 07:51:06;;;;;;;78.57;75.47;;;8.50;94.80;;;;;;5022476;28;20366;-76
2022/11/28 07:53:32;;;;;;;76.85;73.80;;;8.50;94.80;;;;;;5005784;28;20034;-76
2022/11/28 07:56:07;;;;;;;78.88;75.78;;;8.50;94.80;;;;;;5007202;28;20328;-76
2022/11/28 07:58:34;;;;;;;76.63;73.63;;;8.50;94.70;;;;;;5005556;28;20100;-77
2022/11/28 08:01:07;;;;;;;78.80;75.70;;;8.40;94.70;;;;;;5006514;28;20205;-76
2022/11/28 08:03:33;;;;;;;79.10;76.00;;;8.40;94.80;;;;;;5006995;28;20026;-76
2022/11/28 08:06:02;;;;;;;78.28;75.18;;;8.40;94.80;;;;;;5021798;28;20030;-76
2022/11/28 08:08:28;;;;;;;82.28;79.00;;;8.40;94.90;;;;;;5006975;28;20461;-76
2022/11/28 08:10:58;;;;;;;82.38;79.07;;;8.40;94.80;;;;;;5022078;28;20118;-77
2022/11/28 08:13:23;;;;;;;83.55;80.25;;;8.40;94.80;;;;;;5007768;28;20453;-75
2022/11/28 08:15:49;;;;;;;86.43;83.03;;;8.40;94.80;;;;;;5010819;28;20034;-76
2022/11/28 08:18:15;;;;;;;88.28;84.78;;;8.40;94.80;;;;;;5010229;28;20057;-76
2022/11/28 08:20:40;;;;;;;89.35;85.75;;;8.40;94.80;;;;;;5042115;28;20040;-76
2022/11/28 08:23:06;;;;;;;87.85;84.35;;;8.40;94.80;;;;;;5010449;28;20092;-76
2022/11/28 08:25:32;;;;;;;87.22;83.72;;;8.40;94.80;;;;;;5010106;28;20471;-76
2022/11/28 08:27:58;;;;;;;87.35;83.85;;;8.40;94.80;;;;;;5010105;28;20043;-76
2022/11/28 08:30:23;;;;;;;86.80;83.28;;;8.40;94.80;;;;;;5010235;28;20161;-76
2022/11/28 08:32:50;;;;;;;85.97;82.47;;;8.50;94.80;;;;;;5010362;28;20041;-77
2022/11/28 08:35:15;;;;;;;82.85;79.45;;;8.50;94.80;;;;;;5010252;28;20410;-76
2022/11/28 08:37:41;;;;;;;80.57;77.28;;;8.50;94.80;;;;;;5008597;28;20034;-77
2022/11/28 08:40:07;;;;;;;84.32;80.93;;;8.50;94.80;;;;;;5041663;28;20131;-77
2022/11/28 08:42:33;;;;;;;78.57;75.38;;;8.60;94.80;;;;;;5041092;28;20409;-77
2022/11/28 08:44:59;;;;;;;79.78;76.50;;;8.60;94.90;;;;;;5010055;28;20038;-76
2022/11/28 08:47:25;;;;;;;80.95;77.65;;;8.60;94.90;;;;;;5009611;28;20435;-73
2022/11/28 08:49:51;;;;;;;80.15;76.85;;;8.60;94.90;;;;;;5009684;28;20026;-76
2022/11/28 08:52:17;;;;;;;81.03;77.72;;;8.60;94.90;;;;;;5041306;28;20033;-77
2022/11/28 08:54:43;;;;;;;77.55;74.35;;;8.70;94.90;;;;;;5041416;28;20038;-75
2022/11/28 08:57:09;;;;;;;76.75;73.63;;;8.60;94.90;;;;;;5024565;28;20034;-76
2022/11/28 08:59:34;;;;;;;77.88;74.70;;;8.70;94.90;;;;;;5009486;28;20036;-77
2022/11/28 09:02:00;;;;;;;79.15;75.93;;;8.70;94.90;;;;;;5024634;28;20049;-77
2022/11/28 09:04:27;;;;;;;76.30;73.20;;;8.80;94.90;;;;;;5024356;28;20065;-76
2022/11/28 09:06:53;;;;;;;78.70;75.50;;;8.80;94.90;;;;;;5009317;28;20059;-76
2022/11/28 09:09:18;;;;;;;80.35;77.05;;;8.80;94.90;;;;;;5012050;28;20402;-76
2022/11/28 09:11:44;;;;;;;87.18;83.78;;;8.80;94.90;;;;;;5014202;28;20092;-75
2022/11/28 09:14:11;;;;;;;86.57;83.18;;;8.90;94.90;;;;;;5029449;28;20144;-76
2022/11/28 09:16:38;;;;;;;;;;;8.90;94.90;;;;;;5029625;28;20048;-76
2022/11/28 09:19:05;;;;;;;89.05;85.55;;;8.90;94.90;;;;;;5026003;28;19905;-77
2022/11/28 09:21:31;;;;;;;90.60;87.07;;;8.90;94.80;;;;;;5028996;28;20060;-77
2022/11/28 09:23:57;;;;;;;91.82;88.22;;;8.90;94.80;;;;;;5028393;28;20021;-76
2022/11/28 09:26:24;;;;;;;91.97;88.35;;;8.90;94.80;;;;;;5028945;28;20029;-76
2022/11/28 09:28:50;;;;;;;89.07;85.45;;;8.90;94.80;;;;;;5028582;28;20104;-76
2022/11/28 09:31:17;;;;;;;87.13;83.63;;;8.90;94.80;;;;;;5028258;28;20108;-76
2022/11/28 09:33:44;;;;;;;88.88;85.28;;;9.00;94.90;;;;;;5027380;28;20154;-76
2022/11/28 09:36:15;;;;;;;84.82;81.40;;;9.00;94.90;;;;;;5027424;28;20132;-76
2022/11/28 09:38:41;;;;;;;86.60;83.20;;;9.00;94.90;;;;;;5028761;28;20535;-77
2022/11/28 09:41:48;;;;;;;83.40;79.90;;;9.10;94.90;;;;;;5027051;28;20029;-75
2022/11/28 09:44:49;;;;;;;90.88;87.28;;;9.10;94.90;;;;;;4989736;28;20057;-76
2022/11/28 09:47:26;;;;;;;84.03;80.53;;;9.10;94.90;;;;;;5026552;28;20037;-77
2022/11/28 09:49:58;;;;;;;84.65;81.15;;;9.20;94.90;;;;;;5027763;28;20038;-77
2022/11/28 09:52:31;;;;;;;89.03;85.50;;;9.20;94.90;;;;;;5028830;28;20025;-77
2022/11/28 09:55:25;;;;;;;87.78;84.28;;;9.30;95.00;;;;;;5028076;28;20025;-76
2022/11/28 09:57:52;;;;;;;88.78;85.18;;;9.40;95.00;;;;;;5030173;28;20042;-76
2022/11/28 10:00:22;;;;;;;84.95;81.45;;;9.50;95.00;;;;;;5030461;28;20032;-77
2022/11/28 10:02:47;;;;;;;88.28;84.68;;;9.60;95.10;;;;;;5029040;28;20040;-78
2022/11/28 10:05:24;;;;;;;86.68;83.15;;;9.70;95.00;;;;;;5029140;28;20022;-78
2022/11/28 10:08:08;;;;;;;;;;;9.70;95.00;;;;;;5030382;28;20084;-78
2022/11/28 10:10:53;;;;;;;91.28;87.57;;;9.80;95.00;;;;;;5030241;28;19908;-77
2022/11/28 10:13:44;;;;;;;96.30;92.50;;;9.90;95.00;;;;;;5030251;28;20052;-77
2022/11/28 10:16:25;;;;;;;94.20;90.47;;;9.90;95.00;;;;;;5029481;28;20036;-78
2022/11/28 10:18:58;;;;;;;92.43;88.65;;;10.00;95.00;;;;;;5009387;28;20045;-78
2022/11/28 10:21:36;;;;;;;98.00;94.10;;;10.00;94.90;;;;;;5009372;28;20056;-78
2022/11/28 10:24:18;;;;;;;93.22;89.43;;;10.00;94.90;;;;;;5010253;28;20359;-78
2022/11/28 10:26:49;;;;;;;92.93;89.13;;;10.00;94.90;;;;;;5010321;28;20135;-78
2022/11/28 10:29:21;;;;;;;93.15;89.35;;;10.00;94.90;;;;;;5015181;28;20032;-78
2022/11/28 10:31:49;;;;;;;92.65;88.85;;;10.00;94.90;;;;;;5023566;28;20823;-78
2022/11/28 10:34:29;;;;;;;96.30;92.50;;;10.00;94.90;;;;;;5018697;28;20615;-77
2022/11/28 10:37:22;;;;;;;93.20;89.43;;;10.00;94.90;;;;;;5020434;28;20093;-79
2022/11/28 10:39:49;;;;;;;93.68;89.78;;;10.00;94.90;;;;;;5011880;28;20041;-79
2022/11/28 10:42:21;;;;;;;96.82;92.85;;;10.00;94.90;;;;;;5027864;28;20030;-79
2022/11/28 10:45:29;;;;;;;98.38;94.47;;;10.00;94.90;;;;;;5029799;28;20033;-79
2022/11/28 10:48:17;;;;;;;96.25;92.35;;;10.00;95.00;;;;;;5029407;28;20017;-79
2022/11/28 10:50:49;;;;;;;94.10;90.30;;;10.10;95.00;;;;;;5029081;28;20046;-79
2022/11/28 10:53:39;;;;;;;87.63;83.97;;;10.10;95.00;;;;;;5015749;28;20108;-79
2022/11/28 10:56:26;;;;;;;88.88;85.18;;;10.20;95.10;;;;;;5018640;28;20635;-79
2022/11/28 10:59:14;;;;;;;88.15;84.55;;;10.30;95.10;;;;;;5017892;28;20041;-76
2022/11/28 11:01:40;;;;;;;93.35;89.65;;;10.40;95.10;;;;;;5008090;28;20448;-78
2022/11/28 11:04:19;;;;;;;90.60;86.90;;;10.50;95.00;;;;;;5009690;28;20029;-76
2022/11/28 11:07:08;;;;;;;93.28;89.53;;;10.50;95.00;;;;;;5008881;28;20692;-79
2022/11/28 11:09:34;;;;;;;92.60;88.80;;;10.50;94.90;;;;;;5009023;28;20108;-76
2022/11/28 11:12:00;;;;;;;89.57;85.90;;;10.40;94.90;;;;;;5009818;28;20050;-77
2022/11/28 11:14:38;;;;;;;89.05;85.45;;;10.40;94.90;;;;;;5009162;28;20037;-76
2022/11/28 11:17:05;;;;;;;89.47;85.88;;;10.30;94.90;;;;;;5006892;28;20483;-75
2022/11/28 11:19:31;;;;;;;;;;;10.30;94.90;;;;;;5008847;28;20144;-74
2022/11/28 11:21:58;;;;;;;88.05;84.55;;;10.30;95.00;;;;;;5008377;28;19949;-76
2022/11/28 11:24:24;;;;;;;83.70;80.28;;;10.20;94.90;;;;;;5009122;28;20026;-75
2022/11/28 11:26:50;;;;;;;82.25;78.85;;;10.20;95.00;;;;;;5008773;28;20048;-73
2022/11/28 11:29:23;;;;;;;82.45;79.13;;;10.20;95.00;;;;;;5007879;28;20185;-76
2022/11/28 11:31:52;;;;;;;79.18;75.97;;;10.20;95.10;;;;;;5009031;28;20116;-76
2022/11/28 11:34:20;;;;;;;80.68;77.38;;;10.20;95.10;;;;;;5009221;28;20033;-75
2022/11/28 11:36:46;;;;;;;76.13;73.03;;;10.30;95.20;;;;;;5009194;28;20025;-76
2022/11/28 11:39:11;;;;;;;;;;;10.30;95.10;;;;;;5008352;28;20034;-77
2022/11/28 11:41:43;;;;;;;76.38;73.28;;;10.40;95.20;;;;;;5007813;28;19916;-77
2022/11/28 11:44:15;;;;;;;72.20;69.30;;;10.40;95.10;;;;;;5008782;28;20351;-76
2022/11/28 11:47:08;;;;;;;75.60;72.53;;;10.50;95.10;;;;;;5008884;28;20025;-77
2022/11/28 11:49:38;;;;;;;77.78;74.68;;;10.50;95.00;;;;;;5011864;28;20030;-77
2022/11/28 11:52:22;;;;;;;74.15;71.13;;;10.40;95.00;;;;;;5011941;28;20120;-78
2022/11/28 11:55:06;;;;;;;70.63;67.72;;;10.40;95.00;;;;;;5013433;28;20048;-79
2022/11/28 11:57:38;;;;;;;68.28;65.50;;;10.40;95.10;;;;;;5013022;28;20474;-77
2022/11/28 12:00:10;;;;;;;69.90;67.20;;;10.40;95.10;;;;;;5013099;28;20114;-76
2022/11/28 12:02:39;;;;;;;67.05;64.35;;;10.40;95.10;;;;;;5011534;28;20080;-76
2022/11/28 12:05:14;;;;;;;68.63;65.93;;;10.50;95.10;;;;;;5010824;28;20035;-77
2022/11/28 12:08:06;;;;;;;63.85;61.30;;;10.40;95.00;;;;;;5022678;28;20025;-77
2022/11/28 12:10:51;;;;;;;63.85;61.33;;;10.50;95.00;;;;;;5012970;28;20028;-77
2022/11/28 12:13:20;;;;;;;67.35;64.75;;;10.40;95.00;;;;;;5027868;28;20033;-76
2022/11/28 12:16:00;;;;;;;64.82;62.22;;;10.30;95.00;;;;;;5032480;28;20025;-76
2022/11/28 12:18:58;;;;;;;63.30;60.80;;;10.30;95.00;;;;;;5031655;28;20041;-78
2022/11/28 12:21:24;;;;;;;64.72;62.15;;;10.30;95.00;;;;;;5032082;28;20514;-76
2022/11/28 12:24:05;;;;;;;62.20;59.80;;;10.30;95.00;;;;;;5032301;28;20111;-76
2022/11/28 12:26:51;;;;;;;61.20;58.80;;;10.20;95.00;;;;;;5033342;28;20889;-76
2022/11/28 12:29:37;;;;;;;60.50;58.10;;;10.20;95.00;;;;;;5033606;28;20022;-76
2022/11/28 12:32:18;;;;;;;60.40;58.00;;;10.20;95.20;;;;;;5029068;28;20041;-75
2022/11/28 12:35:05;;;;;;;61.88;59.47;;;10.20;95.00;;;;;;5033066;28;20041;-75
2022/11/28 12:37:59;;;;;;;64.68;62.17;;;10.10;95.10;;;;;;5033277;28;20028;-75
2022/11/28 12:40:45;;;;;;;65.18;62.67;;;10.10;95.10;;;;;;5021556;28;20097;-75
2022/11/28 12:43:29;;;;;;;62.40;59.90;;;10.10;95.10;;;;;;5032956;28;20407;-72
2022/11/28 12:46:19;;;;;;;62.20;59.80;;;10.20;95.10;;;;;;5032785;28;20056;-75
2022/11/28 12:49:27;;;;;;;61.72;59.33;;;10.20;95.20;;;;;;5032746;28;20048;-75
2022/11/28 12:52:29;;;;;;;57.25;55.05;;;10.40;95.40;;;;;;5026631;28;20528;-79
2022/11/28 12:55:01;;;;;;;58.22;56.03;;;10.60;95.30;;;;;;5032734;28;20355;-77
2022/11/28 12:57:34;;;;;;;59.25;56.95;;;10.70;95.20;;;;;;5032469;28;20085;-75
2022/11/28 13:00:06;;;;;;;54.38;52.28;;;10.80;95.20;;;;;;5063906;28;20092;-75
2022/11/28 13:02:56;;;;;;;56.30;54.20;;;10.90;95.30;;;;;;5032287;28;20021;-74
2022/11/28 13:05:53;;;;;;;54.08;51.97;;;11.10;95.40;;;;;;5032019;28;20028;-77